Dynawave — 3FEH6 — position and weather

sailwx.info

Track history (hours):
 
Tides and Currents Weather Stations Pressure Air Temp Water Temp Dewpoint Dewpoint Depression Visibility Wind Speed Wind Dir Waves Ship Positions

Dynawave

Last reported at 2014-Aug-12 03:21 UTC. Time now 2014-Aug-20 16:39 UTC.
Position N 35°57' E 141°05'.
Warning: this ship's position is 8 days out of date.

Length 209 m; draft 10.1 m.

Type: Cargo ship. MMSI: 356345000.

Date/timePositionNaut miles runAvg speedWind from/ knotsBaromVisibWave heightAir tempDewpointWater temp
2014-Aug-12 03:21N 35°57' E 141°05'911.2
2014-Aug-12 02:31N 35°48' E 141°04'1110.9
2014-Aug-12 01:32N 35°37' E 141°01'1312.7
2014-Aug-12 00:33N 35°26' E 140°53'1414.4
2014-Aug-11 23:33N 35°14' E 140°45'1715.4
2014-Aug-11 22:27N 34°59' E 140°35'1415.0
2014-Aug-11 21:31N 34°46' E 140°27'1514.4
2014-Aug-11 20:28N 34°33' E 140°18'  
2014-Aug-05 06:33N 22°07' E 114°13'4 0.3
2014-Aug-04 18:06N 22°10' E 114°10'  
Track history (hours):
 
Tides and Currents Weather Stations Pressure Air Temp Water Temp Dewpoint Dewpoint Depression Visibility Wind Speed Wind Dir Waves Ship Positions

Dynawave

Last reported at 2014-Aug-12 03:21 UTC. Time now 2014-Aug-20 16:39 UTC.
Position N 35°57' E 141°05'.
Warning: this ship's position is 8 days out of date.

Length 209 m; draft 10.1 m.

Type: Cargo ship. MMSI: 356345000.

Date/timePositionNaut miles runAvg speedWind from/ knotsBaromVisibWave heightAir tempDewpointWater temp
2014-Aug-12 03:21N 35°57' E 141°05'911.2
2014-Aug-12 02:31N 35°48' E 141°04'1110.9
2014-Aug-12 01:32N 35°37' E 141°01'1312.7
2014-Aug-12 00:33N 35°26' E 140°53'1414.4
2014-Aug-11 23:33N 35°14' E 140°45'1715.4
2014-Aug-11 22:27N 34°59' E 140°35'1415.0
2014-Aug-11 21:31N 34°46' E 140°27'1514.4
2014-Aug-11 20:28N 34°33' E 140°18'  
2014-Aug-05 06:33N 22°07' E 114°13'4 0.3
2014-Aug-04 18:06N 22°10' E 114°10'  

Dump ship's entire track history